createdAt,value
2018-12-20T00:00:12.687Z,4.00
2018-12-20T00:01:12.610Z,4.00
2018-12-20T00:02:12.635Z,4.00
2018-12-20T00:03:12.639Z,4.00
2018-12-20T00:04:12.575Z,4.00
2018-12-20T00:05:12.542Z,4.00
2018-12-20T00:06:12.567Z,4.00
2018-12-20T00:07:12.589Z,4.00
2018-12-20T00:08:12.626Z,4.00
2018-12-20T00:09:12.594Z,4.00
2018-12-20T00:10:12.469Z,4.00
2018-12-20T00:11:12.521Z,4.00
2018-12-20T00:12:12.503Z,4.00
2018-12-20T00:13:12.547Z,4.00
2018-12-20T00:14:12.577Z,4.00
2018-12-20T00:15:12.444Z,4.00
2018-12-20T00:16:12.508Z,4.00
2018-12-20T00:17:12.426Z,4.00
2018-12-20T00:18:12.581Z,4.00
2018-12-20T00:19:12.445Z,4.00
2018-12-20T00:20:12.403Z,4.00
2018-12-20T00:21:12.457Z,4.00
2018-12-20T00:22:12.364Z,4.00
2018-12-20T00:23:12.416Z,4.00
2018-12-20T00:24:12.330Z,4.00
2018-12-20T00:25:12.323Z,4.00
2018-12-20T00:26:12.337Z,4.00
2018-12-20T00:27:12.312Z,4.00
2018-12-20T00:28:12.311Z,4.00
2018-12-20T00:29:12.381Z,4.00
2018-12-20T00:30:12.425Z,4.00
2018-12-20T00:31:13.717Z,4.00
2018-12-20T00:32:12.219Z,4.00
2018-12-20T00:33:12.484Z,4.00
2018-12-20T00:34:12.369Z,4.00
2018-12-20T00:35:12.523Z,4.00
2018-12-20T00:36:12.193Z,4.00
2018-12-20T00:37:12.368Z,4.00
2018-12-20T00:38:12.311Z,4.00
2018-12-20T00:39:12.159Z,4.00
2018-12-20T00:40:12.237Z,4.00
2018-12-20T00:41:12.225Z,4.00
2018-12-20T00:42:12.176Z,4.00
2018-12-20T00:43:12.190Z,4.00
2018-12-20T00:44:12.235Z,4.00
2018-12-20T00:45:12.195Z,4.00
2018-12-20T00:46:12.107Z,4.00
2018-12-20T00:47:12.241Z,4.00
2018-12-20T00:48:12.177Z,4.00
2018-12-20T00:49:12.097Z,4.00
2018-12-20T00:50:12.170Z,4.00
2018-12-20T00:51:12.033Z,4.00
2018-12-20T00:52:12.054Z,4.00
2018-12-20T00:53:12.072Z,4.00
2018-12-20T00:54:12.023Z,4.00
2018-12-20T00:55:12.022Z,4.00
2018-12-20T00:56:12.133Z,4.00
2018-12-20T00:57:12.133Z,4.00
2018-12-20T00:58:12.159Z,4.00
2018-12-20T00:59:12.053Z,4.00
2018-12-20T01:00:11.964Z,4.00
2018-12-20T01:01:11.969Z,4.00
2018-12-20T01:02:11.995Z,4.00
2018-12-20T01:03:12.194Z,4.00
2018-12-20T01:04:11.978Z,4.00
2018-12-20T01:05:11.939Z,4.00
2018-12-20T01:06:11.897Z,4.00
2018-12-20T01:07:11.875Z,4.00
2018-12-20T01:08:11.861Z,4.00
2018-12-20T01:09:11.921Z,4.00
2018-12-20T01:10:11.832Z,4.00
2018-12-20T01:11:11.827Z,4.00
2018-12-20T01:12:11.868Z,4.00
2018-12-20T01:13:11.846Z,4.00
2018-12-20T01:14:11.847Z,4.00
2018-12-20T01:15:11.782Z,4.00
2018-12-20T01:16:11.826Z,4.00
2018-12-20T01:17:11.979Z,4.00
2018-12-20T01:18:11.857Z,4.00
2018-12-20T01:19:11.914Z,4.00
2018-12-20T01:20:11.847Z,4.00
2018-12-20T01:21:11.751Z,4.00
2018-12-20T01:22:11.711Z,4.00
2018-12-20T01:23:11.839Z,4.00
2018-12-20T01:24:11.731Z,4.00
2018-12-20T01:25:11.685Z,4.00
2018-12-20T01:26:11.681Z,4.00
2018-12-20T01:27:11.703Z,4.00
2018-12-20T01:28:11.736Z,4.00
2018-12-20T01:29:11.652Z,4.00
2018-12-20T01:30:11.883Z,4.00
2018-12-20T01:31:11.716Z,4.00
2018-12-20T01:32:11.606Z,4.00
2018-12-20T01:33:11.672Z,4.00
2018-12-20T01:34:11.610Z,4.00
2018-12-20T01:35:11.703Z,4.00
2018-12-20T01:36:11.575Z,4.00
2018-12-20T01:37:11.559Z,4.00
2018-12-20T01:38:11.582Z,4.00
2018-12-20T01:39:11.563Z,4.00
2018-12-20T01:40:11.534Z,4.00
2018-12-20T01:41:11.527Z,4.00
2018-12-20T01:42:11.499Z,4.00
2018-12-20T01:43:11.513Z,4.00
2018-12-20T01:44:11.679Z,4.00
2018-12-20T01:45:11.469Z,4.00
2018-12-20T01:46:11.469Z,4.00
2018-12-20T01:47:11.597Z,4.00
2018-12-20T01:48:11.513Z,4.00
2018-12-20T01:49:11.551Z,4.00
2018-12-20T01:50:11.599Z,4.00
2018-12-20T01:51:11.602Z,4.00
2018-12-20T01:52:11.474Z,4.00
2018-12-20T01:53:11.404Z,4.00
2018-12-20T01:54:11.560Z,4.00
2018-12-20T01:55:11.559Z,4.00
2018-12-20T01:56:11.436Z,4.00
2018-12-20T01:57:11.543Z,4.00
2018-12-20T01:58:11.340Z,4.00
2018-12-20T01:59:11.341Z,4.00
2018-12-20T02:00:11.319Z,4.00
2018-12-20T02:01:11.548Z,4.00
2018-12-20T02:02:11.304Z,4.00
2018-12-20T02:03:11.377Z,4.00
2018-12-20T02:04:11.313Z,4.00
2018-12-20T02:05:11.266Z,4.00
2018-12-20T02:06:11.269Z,4.00
2018-12-20T02:07:11.308Z,4.00
2018-12-20T02:08:11.279Z,4.00
2018-12-20T02:09:11.227Z,4.00
2018-12-20T02:10:11.440Z,4.00
2018-12-20T02:11:11.320Z,4.00
2018-12-20T02:12:11.357Z,4.00
2018-12-20T02:13:11.183Z,4.00
2018-12-20T02:14:11.167Z,4.00
2018-12-20T02:15:11.220Z,4.00
2018-12-20T02:16:11.151Z,4.00
2018-12-20T02:17:11.186Z,4.00
2018-12-20T02:18:11.144Z,4.00
2018-12-20T02:19:11.149Z,4.00
2018-12-20T02:20:11.131Z,4.00
2018-12-20T02:21:11.172Z,4.00
2018-12-20T02:22:11.090Z,4.00
2018-12-20T02:23:11.088Z,4.00
2018-12-20T02:24:11.209Z,4.00
2018-12-20T02:25:11.102Z,4.00
2018-12-20T02:26:11.105Z,4.00
2018-12-20T02:27:11.150Z,4.00
2018-12-20T02:28:11.185Z,4.00
2018-12-20T02:29:11.199Z,4.00
2018-12-20T02:30:11.202Z,4.00
2018-12-20T02:31:10.995Z,4.00
2018-12-20T02:32:11.105Z,4.00
2018-12-20T02:33:10.970Z,4.00
2018-12-20T02:34:10.974Z,4.00
2018-12-20T02:35:11.106Z,4.00
2018-12-20T02:36:10.942Z,4.00
2018-12-20T02:37:10.949Z,4.00
2018-12-20T02:38:10.921Z,4.00
2018-12-20T02:39:10.999Z,4.00
2018-12-20T02:40:10.920Z,4.00
2018-12-20T02:41:11.019Z,4.00
2018-12-20T02:42:11.073Z,4.00
2018-12-20T02:43:10.861Z,4.00
2018-12-20T02:44:11.058Z,4.00
2018-12-20T02:45:11.121Z,4.00
2018-12-20T02:46:11.132Z,4.00
2018-12-20T02:47:10.845Z,4.00
2018-12-20T02:48:10.930Z,4.00
2018-12-20T02:49:10.848Z,4.00
2018-12-20T02:50:10.789Z,4.00
2018-12-20T02:51:10.910Z,4.00
2018-12-20T02:52:10.783Z,4.00
2018-12-20T02:53:10.930Z,4.00
2018-12-20T02:54:10.779Z,4.00
2018-12-20T02:55:10.976Z,4.00
2018-12-20T02:56:10.734Z,0.00
2018-12-20T02:57:10.713Z,4.00
2018-12-20T02:58:10.709Z,0.00
2018-12-20T02:59:10.686Z,0.00
2018-12-20T03:00:10.696Z,0.00
2018-12-20T03:01:10.855Z,0.00
2018-12-20T03:02:10.840Z,0.00
2018-12-20T03:03:10.839Z,0.00
2018-12-20T03:04:10.742Z,0.00
2018-12-20T03:05:10.646Z,0.00
2018-12-20T03:06:10.627Z,0.00
2018-12-20T03:07:10.599Z,0.00
2018-12-20T03:08:10.723Z,0.00
2018-12-20T03:09:10.652Z,0.00
2018-12-20T03:10:10.808Z,0.00
2018-12-20T03:11:10.672Z,0.00
2018-12-20T03:12:10.698Z,0.00
2018-12-20T03:13:10.671Z,0.00
2018-12-20T03:14:10.522Z,0.00
2018-12-20T03:15:19.722Z,0.00
2018-12-20T03:16:11.598Z,0.00
2018-12-20T03:17:10.640Z,0.00
2018-12-20T03:18:10.629Z,0.00
2018-12-20T03:19:10.478Z,0.00
2018-12-20T03:20:10.564Z,0.00
2018-12-20T03:21:10.543Z,0.00
2018-12-20T03:22:10.647Z,0.00
2018-12-20T03:23:10.432Z,0.00
2018-12-20T03:24:10.489Z,0.00
2018-12-20T03:25:10.412Z,0.00
2018-12-20T03:26:10.466Z,0.00
2018-12-20T03:27:10.462Z,0.00
2018-12-20T03:28:10.380Z,0.00
2018-12-20T03:29:10.506Z,0.00
2018-12-20T03:30:10.361Z,0.00
2018-12-20T03:31:10.548Z,0.00
2018-12-20T03:32:10.557Z,0.00
2018-12-20T03:33:10.736Z,0.00
2018-12-20T03:34:10.493Z,0.00
2018-12-20T03:35:10.379Z,0.00
2018-12-20T03:36:10.322Z,0.00
2018-12-20T03:37:10.604Z,0.00
2018-12-20T03:38:10.315Z,0.00
2018-12-20T03:39:10.362Z,0.00
2018-12-20T03:40:10.392Z,0.00
2018-12-20T03:41:10.265Z,0.00
2018-12-20T03:42:10.350Z,0.00
2018-12-20T03:43:10.232Z,0.00
2018-12-20T03:44:10.234Z,0.00
2018-12-20T03:45:10.331Z,0.00
2018-12-20T03:46:10.435Z,0.00
2018-12-20T03:47:10.364Z,0.00
2018-12-20T03:48:10.392Z,0.00
2018-12-20T03:49:10.469Z,0.00
2018-12-20T03:50:10.211Z,0.00
2018-12-20T03:51:10.179Z,0.00
2018-12-20T03:52:10.376Z,0.00
2018-12-20T03:53:10.167Z,0.00
2018-12-20T03:54:10.408Z,0.00
2018-12-20T03:55:10.438Z,0.00
2018-12-20T03:56:10.235Z,0.00
2018-12-20T03:57:10.245Z,0.00
2018-12-20T03:58:10.192Z,0.00
2018-12-20T03:59:10.296Z,0.00
2018-12-20T04:00:10.359Z,0.00
2018-12-20T04:01:10.042Z,0.00
2018-12-20T04:02:10.123Z,0.00
2018-12-20T04:03:10.382Z,0.00
2018-12-20T04:04:10.383Z,0.00
2018-12-20T04:05:10.208Z,0.00
2018-12-20T04:06:10.179Z,4.00
2018-12-20T04:07:10.299Z,4.00
2018-12-20T04:08:10.108Z,4.00
2018-12-20T04:09:09.998Z,0.00
2018-12-20T04:10:10.150Z,4.00
2018-12-20T04:11:10.052Z,4.00
2018-12-20T04:12:09.961Z,4.00
2018-12-20T04:13:09.920Z,4.00
2018-12-20T04:14:09.930Z,4.00
2018-12-20T04:15:10.035Z,4.00
2018-12-20T04:16:09.886Z,4.00
2018-12-20T04:17:09.932Z,4.00
2018-12-20T04:18:09.986Z,4.00
2018-12-20T04:19:09.848Z,0.00
2018-12-20T04:20:10.295Z,0.00
2018-12-20T04:21:09.993Z,4.00
2018-12-20T04:22:09.856Z,0.00
2018-12-20T04:23:09.810Z,0.00
2018-12-20T04:24:09.857Z,0.00
2018-12-20T04:25:09.967Z,0.00
2018-12-20T04:26:09.827Z,0.00
2018-12-20T04:27:09.861Z,4.00
2018-12-20T04:28:09.789Z,0.00
2018-12-20T04:29:09.931Z,0.00
2018-12-20T04:30:09.726Z,0.00
2018-12-20T04:31:09.845Z,0.00
2018-12-20T04:32:09.840Z,0.00
2018-12-20T04:33:09.855Z,0.00
2018-12-20T04:34:09.829Z,0.00
2018-12-20T04:35:09.892Z,0.00
2018-12-20T04:36:09.832Z,0.00
2018-12-20T04:37:09.659Z,0.00
2018-12-20T04:38:09.829Z,0.00
2018-12-20T04:39:09.759Z,0.00
2018-12-20T04:40:09.627Z,0.00
2018-12-20T04:41:09.619Z,0.00
2018-12-20T04:42:09.599Z,0.00
2018-12-20T04:43:09.600Z,0.00
2018-12-20T04:44:09.583Z,0.00
2018-12-20T04:45:09.909Z,0.00
2018-12-20T04:46:09.634Z,0.00
2018-12-20T04:47:09.731Z,0.00
2018-12-20T04:48:09.681Z,4.00
2018-12-20T04:49:09.738Z,4.00
2018-12-20T04:50:09.568Z,0.00
2018-12-20T04:51:09.518Z,0.00
2018-12-20T04:52:09.513Z,0.00
2018-12-20T04:53:09.657Z,0.00
2018-12-20T04:54:09.484Z,0.00
2018-12-20T04:55:09.517Z,0.00
2018-12-20T04:56:09.455Z,0.00
2018-12-20T04:57:09.449Z,0.00
2018-12-20T04:58:09.658Z,0.00
2018-12-20T04:59:09.766Z,0.00
2018-12-20T05:00:09.635Z,0.00
2018-12-20T05:01:09.407Z,0.00
2018-12-20T05:02:09.445Z,0.00
2018-12-20T05:03:09.562Z,0.00
2018-12-20T05:04:09.503Z,4.00
2018-12-20T05:05:09.433Z,4.00
2018-12-20T05:06:09.375Z,4.00
2018-12-20T05:07:09.415Z,0.00
2018-12-20T05:08:09.673Z,0.00
2018-12-20T05:09:09.317Z,4.00
2018-12-20T05:10:09.574Z,4.00
2018-12-20T05:11:09.312Z,4.00
2018-12-20T05:12:09.514Z,4.00
2018-12-20T05:13:09.323Z,4.00
2018-12-20T05:14:09.465Z,4.00
2018-12-20T05:15:09.258Z,4.00
2018-12-20T05:16:09.415Z,4.00
2018-12-20T05:17:09.230Z,4.00
2018-12-20T05:18:09.234Z,0.00
2018-12-20T05:19:09.229Z,0.00
2018-12-20T05:20:09.208Z,0.00
2018-12-20T05:21:09.187Z,0.00
2018-12-20T05:22:09.260Z,0.00
2018-12-20T05:23:09.190Z,0.00
2018-12-20T05:24:09.163Z,0.00
2018-12-20T05:25:09.229Z,0.00
2018-12-20T05:26:09.145Z,0.00
2018-12-20T05:27:09.227Z,0.00
2018-12-20T05:28:09.128Z,0.00
2018-12-20T05:29:09.312Z,0.00
2018-12-20T05:30:09.159Z,0.00
2018-12-20T05:31:09.083Z,0.00
2018-12-20T05:32:09.130Z,0.00
2018-12-20T05:33:09.084Z,0.00
2018-12-20T05:34:09.046Z,0.00
2018-12-20T05:35:09.110Z,0.00
2018-12-20T05:36:09.107Z,0.00
2018-12-20T05:37:09.243Z,0.00
2018-12-20T05:38:09.199Z,0.00
2018-12-20T05:39:09.025Z,0.00
2018-12-20T05:40:09.044Z,0.00
2018-12-20T05:41:09.250Z,0.00
2018-12-20T05:42:08.977Z,0.00
2018-12-20T05:43:08.961Z,0.00
2018-12-20T05:44:09.409Z,0.00
2018-12-20T05:45:09.084Z,0.00
2018-12-20T05:46:09.125Z,0.00
2018-12-20T05:47:08.941Z,0.00
2018-12-20T05:48:08.914Z,0.00
2018-12-20T05:49:08.909Z,0.00
2018-12-20T05:50:08.903Z,0.00
2018-12-20T05:51:08.870Z,0.00
2018-12-20T05:52:08.855Z,0.00
2018-12-20T05:53:08.853Z,4.00
2018-12-20T05:54:08.871Z,4.00
2018-12-20T05:55:09.040Z,4.00
2018-12-20T05:56:08.816Z,0.00
2018-12-20T05:57:09.035Z,0.00
2018-12-20T05:58:08.796Z,4.00
2018-12-20T05:59:09.027Z,8.00
2018-12-20T06:00:08.934Z,8.00
2018-12-20T06:01:08.824Z,8.00
2018-12-20T06:02:08.862Z,4.00
2018-12-20T06:03:08.931Z,4.00
2018-12-20T06:04:09.014Z,4.00
2018-12-20T06:05:08.789Z,8.00
2018-12-20T06:06:08.726Z,52.00
2018-12-20T06:07:08.780Z,52.00
2018-12-20T06:08:08.842Z,52.00
2018-12-20T06:09:08.682Z,52.00
2018-12-20T06:10:08.758Z,52.00
2018-12-20T06:11:08.657Z,52.00
2018-12-20T06:12:08.771Z,52.00
2018-12-20T06:13:08.645Z,52.00
2018-12-20T06:14:08.846Z,52.00
2018-12-20T06:15:08.656Z,48.00
2018-12-20T06:16:12.582Z,44.00
2018-12-20T06:17:08.604Z,44.00
2018-12-20T06:18:08.621Z,44.00
2018-12-20T06:19:08.592Z,44.00
2018-12-20T06:20:08.799Z,44.00
2018-12-20T06:21:08.605Z,44.00
2018-12-20T06:22:08.750Z,44.00
2018-12-20T06:23:08.538Z,44.00
2018-12-20T06:24:08.542Z,44.00
2018-12-20T06:25:08.520Z,48.00
2018-12-20T06:26:08.532Z,44.00
2018-12-20T06:27:08.504Z,44.00
2018-12-20T06:28:08.488Z,48.00
2018-12-20T06:29:08.497Z,48.00
2018-12-20T06:30:08.473Z,48.00
2018-12-20T06:31:08.472Z,44.00
2018-12-20T06:32:08.462Z,44.00
2018-12-20T06:33:08.437Z,48.00
2018-12-20T06:34:08.501Z,44.00
2018-12-20T06:35:08.411Z,48.00
2018-12-20T06:36:08.415Z,44.00
2018-12-20T06:37:08.408Z,44.00
2018-12-20T06:38:08.383Z,4.00
2018-12-20T06:39:08.406Z,4.00
2018-12-20T06:40:08.373Z,4.00
2018-12-20T06:41:08.397Z,4.00
2018-12-20T06:42:08.344Z,0.00
2018-12-20T06:43:08.336Z,0.00
2018-12-20T06:44:08.337Z,0.00
2018-12-20T06:45:08.309Z,0.00
2018-12-20T06:46:08.299Z,0.00
2018-12-20T06:47:08.307Z,0.00
2018-12-20T06:48:08.296Z,0.00
2018-12-20T06:49:08.298Z,0.00
2018-12-20T06:50:08.264Z,4.00
2018-12-20T06:51:08.265Z,4.00
2018-12-20T06:52:08.256Z,4.00
2018-12-20T06:53:08.230Z,4.00
2018-12-20T06:54:08.222Z,4.00
2018-12-20T06:55:08.225Z,4.00
2018-12-20T06:56:08.197Z,0.00
2018-12-20T06:57:08.210Z,4.00
2018-12-20T06:58:08.179Z,4.00
2018-12-20T06:59:08.170Z,4.00
2018-12-20T07:00:08.164Z,4.00
2018-12-20T07:01:08.152Z,4.00
2018-12-20T07:02:08.137Z,8.00
2018-12-20T07:03:08.138Z,8.00
2018-12-20T07:04:08.123Z,8.00
2018-12-20T07:05:08.107Z,8.00
2018-12-20T07:06:08.098Z,12.00
2018-12-20T07:07:08.091Z,8.00
2018-12-20T07:08:08.085Z,12.00
2018-12-20T07:09:08.063Z,12.00
2018-12-20T07:10:08.062Z,16.00
2018-12-20T07:11:08.045Z,12.00
2018-12-20T07:12:08.072Z,16.00
2018-12-20T07:13:08.060Z,16.00
2018-12-20T07:14:08.014Z,16.00
2018-12-20T07:15:08.002Z,20.00
2018-12-20T07:16:07.997Z,20.00
2018-12-20T07:17:07.985Z,20.00
2018-12-20T07:18:07.970Z,24.00
2018-12-20T07:19:07.972Z,20.00
2018-12-20T07:20:07.966Z,24.00
2018-12-20T07:21:07.938Z,24.00
2018-12-20T07:22:07.928Z,24.00
2018-12-20T07:23:07.919Z,28.00
2018-12-20T07:24:07.923Z,28.00
2018-12-20T07:25:07.901Z,28.00
2018-12-20T07:26:07.891Z,32.00
2018-12-20T07:27:07.890Z,32.00
2018-12-20T07:28:07.873Z,36.00
2018-12-20T07:29:07.883Z,36.00
2018-12-20T07:30:07.849Z,40.00
2018-12-20T07:31:07.839Z,40.00
2018-12-20T07:32:07.832Z,44.00
2018-12-20T07:33:07.821Z,44.00
2018-12-20T07:34:07.805Z,48.00
2018-12-20T07:35:07.920Z,56.00
2018-12-20T07:36:07.789Z,56.00
2018-12-20T07:37:07.775Z,60.00
2018-12-20T07:38:07.768Z,64.00
2018-12-20T07:39:07.753Z,68.00
2018-12-20T07:40:07.769Z,72.00
2018-12-20T07:41:07.739Z,76.00
2018-12-20T07:42:07.797Z,80.00
2018-12-20T07:43:07.717Z,88.00
2018-12-20T07:44:07.704Z,92.00
2018-12-20T07:45:07.711Z,92.00
2018-12-20T07:46:07.690Z,100.00
2018-12-20T07:47:07.671Z,104.00
2018-12-20T07:48:07.663Z,108.00
2018-12-20T07:49:07.652Z,112.00
2018-12-20T07:50:07.678Z,116.00
2018-12-20T07:51:07.633Z,120.00
2018-12-20T07:52:07.626Z,128.00
2018-12-20T07:53:07.614Z,132.00
2018-12-20T07:54:07.604Z,140.00
2018-12-20T07:55:07.584Z,144.00
2018-12-20T07:56:07.597Z,148.00
2018-12-20T07:57:07.570Z,156.00
2018-12-20T07:58:07.558Z,156.00
2018-12-20T07:59:07.552Z,164.00
2018-12-20T08:00:07.541Z,168.00
2018-12-20T08:01:07.637Z,172.00
2018-12-20T08:02:07.511Z,176.00
2018-12-20T08:03:07.497Z,184.00
2018-12-20T08:04:07.497Z,184.00
2018-12-20T08:05:07.487Z,192.00
2018-12-20T08:06:07.484Z,196.00
2018-12-20T08:07:07.458Z,200.00
2018-12-20T08:08:07.446Z,204.00
2018-12-20T08:09:07.435Z,208.00
2018-12-20T08:10:07.425Z,212.00
2018-12-20T08:11:07.432Z,216.00
2018-12-20T08:12:07.406Z,224.00
2018-12-20T08:13:07.398Z,228.00
2018-12-20T08:14:07.383Z,236.00
2018-12-20T08:15:07.373Z,240.00
2018-12-20T08:16:07.390Z,248.00
2018-12-20T08:17:07.354Z,256.00
2018-12-20T08:18:07.340Z,260.00
2018-12-20T08:19:07.326Z,268.00
2018-12-20T08:20:07.318Z,272.00
2018-12-20T08:21:07.310Z,272.00
2018-12-20T08:22:07.310Z,280.00
2018-12-20T08:23:07.296Z,288.00
2018-12-20T08:24:07.275Z,292.00
2018-12-20T08:25:07.288Z,300.00
2018-12-20T08:26:07.255Z,308.00
2018-12-20T08:27:07.254Z,316.00
2018-12-20T08:28:07.232Z,328.00
2018-12-20T08:29:07.219Z,336.00
2018-12-20T08:30:07.209Z,348.00
2018-12-20T08:31:07.196Z,360.00
2018-12-20T08:32:07.201Z,368.00
2018-12-20T08:33:07.173Z,380.00
2018-12-20T08:34:07.166Z,388.00
2018-12-20T08:35:07.155Z,396.00
2018-12-20T08:36:07.162Z,404.00
2018-12-20T08:37:07.158Z,416.00
2018-12-20T08:38:07.127Z,420.00
2018-12-20T08:39:07.206Z,428.00
2018-12-20T08:40:07.099Z,432.00
2018-12-20T08:41:09.039Z,432.00
2018-12-20T08:42:07.095Z,436.00
2018-12-20T08:43:07.068Z,440.00
2018-12-20T08:44:07.053Z,440.00
2018-12-20T08:45:07.055Z,440.00
2018-12-20T08:46:07.036Z,440.00
2018-12-20T08:47:07.060Z,436.00
2018-12-20T08:48:07.010Z,436.00
2018-12-20T08:49:07.004Z,432.00
2018-12-20T08:50:06.998Z,428.00
2018-12-20T08:51:07.010Z,428.00
2018-12-20T08:52:06.999Z,424.00
2018-12-20T08:53:07.005Z,424.00
2018-12-20T08:54:06.953Z,424.00
2018-12-20T08:55:06.940Z,424.00
2018-12-20T08:56:06.927Z,424.00
2018-12-20T08:57:06.928Z,424.00
2018-12-20T08:58:06.924Z,428.00
2018-12-20T08:59:06.904Z,432.00
2018-12-20T09:00:06.926Z,436.00
2018-12-20T09:01:06.905Z,440.00
2018-12-20T09:02:06.879Z,440.00
2018-12-20T09:03:06.878Z,444.00
2018-12-20T09:04:06.846Z,448.00
2018-12-20T09:05:06.844Z,452.00
2018-12-20T09:06:06.838Z,452.00
2018-12-20T09:07:06.816Z,448.00
2018-12-20T09:08:06.837Z,448.00
2018-12-20T09:09:06.805Z,448.00
2018-12-20T09:10:06.824Z,448.00
2018-12-20T09:11:06.797Z,444.00
2018-12-20T09:12:06.776Z,448.00
2018-12-20T09:13:09.776Z,448.00
2018-12-20T09:14:06.756Z,452.00
2018-12-20T09:15:06.781Z,452.00
2018-12-20T09:16:06.776Z,456.00
2018-12-20T09:17:06.721Z,460.00
2018-12-20T09:18:06.725Z,464.00
2018-12-20T09:19:06.705Z,468.00
2018-12-20T09:20:06.737Z,472.00
2018-12-20T09:21:06.674Z,476.00
2018-12-20T09:22:06.699Z,480.00
2018-12-20T09:23:06.698Z,492.00
2018-12-20T09:24:06.660Z,500.00
2018-12-20T09:25:06.660Z,504.00
2018-12-20T09:26:06.622Z,512.00
2018-12-20T09:27:06.635Z,520.00
2018-12-20T09:28:06.592Z,528.00
2018-12-20T09:29:06.597Z,536.00
2018-12-20T09:30:06.574Z,536.00
2018-12-20T09:31:06.572Z,536.00
2018-12-20T09:32:06.552Z,540.00
2018-12-20T09:33:06.564Z,540.00
2018-12-20T09:34:06.652Z,540.00
2018-12-20T09:35:06.519Z,544.00
2018-12-20T09:36:06.530Z,548.00
2018-12-20T09:37:06.503Z,556.00
2018-12-20T09:38:06.524Z,560.00
2018-12-20T09:39:06.497Z,564.00
2018-12-20T09:40:06.629Z,572.00
2018-12-20T09:41:06.526Z,584.00
2018-12-20T09:42:06.452Z,588.00
2018-12-20T09:43:06.431Z,592.00
2018-12-20T09:44:06.442Z,596.00
2018-12-20T09:45:06.409Z,600.00
2018-12-20T09:46:06.404Z,596.00
2018-12-20T09:47:11.706Z,596.00
2018-12-20T09:48:07.380Z,596.00
2018-12-20T09:49:06.428Z,596.00
2018-12-20T09:50:06.358Z,596.00
2018-12-20T09:51:06.356Z,596.00
2018-12-20T09:52:06.333Z,592.00
2018-12-20T09:53:06.324Z,592.00
2018-12-20T09:54:06.430Z,592.00
2018-12-20T09:55:06.298Z,592.00
2018-12-20T09:56:06.295Z,588.00
2018-12-20T09:57:06.284Z,592.00
2018-12-20T09:58:06.271Z,592.00
2018-12-20T09:59:06.273Z,596.00
2018-12-20T10:00:06.316Z,600.00
2018-12-20T10:01:06.239Z,600.00
2018-12-20T10:02:06.226Z,604.00
2018-12-20T10:03:06.218Z,612.00
2018-12-20T10:04:06.230Z,620.00
2018-12-20T10:05:06.196Z,628.00
2018-12-20T10:06:06.225Z,636.00
2018-12-20T10:07:06.191Z,648.00
2018-12-20T10:08:06.187Z,664.00
2018-12-20T10:09:06.147Z,672.00
2018-12-20T10:10:06.153Z,680.00
2018-12-20T10:11:06.125Z,684.00
2018-12-20T10:12:06.144Z,692.00
2018-12-20T10:13:06.115Z,696.00
2018-12-20T10:14:06.195Z,700.00
2018-12-20T10:15:06.250Z,704.00
2018-12-20T10:16:06.090Z,704.00
2018-12-20T10:17:06.061Z,704.00
2018-12-20T10:18:06.060Z,704.00
2018-12-20T10:19:06.041Z,708.00
2018-12-20T10:20:06.051Z,712.00
2018-12-20T10:21:06.019Z,712.00
2018-12-20T10:22:06.007Z,716.00
2018-12-20T10:23:05.997Z,720.00
2018-12-20T10:24:05.984Z,724.00
2018-12-20T10:25:05.998Z,724.00
2018-12-20T10:26:05.965Z,724.00
2018-12-20T10:27:06.051Z,720.00
2018-12-20T10:28:05.942Z,720.00
2018-12-20T10:29:05.956Z,720.00
2018-12-20T10:30:05.936Z,720.00
2018-12-20T10:31:05.917Z,716.00
2018-12-20T10:32:05.905Z,712.00
2018-12-20T10:33:05.889Z,712.00
2018-12-20T10:34:05.876Z,716.00
2018-12-20T10:35:05.881Z,712.00
2018-12-20T10:36:05.854Z,716.00
2018-12-20T10:37:05.843Z,716.00
2018-12-20T10:38:05.850Z,720.00
2018-12-20T10:39:05.825Z,716.00
2018-12-20T10:40:05.822Z,712.00
2018-12-20T10:41:05.802Z,712.00
2018-12-20T10:42:05.789Z,716.00
2018-12-20T10:43:05.798Z,712.00
2018-12-20T10:44:05.774Z,716.00
2018-12-20T10:45:05.772Z,712.00
2018-12-20T10:46:05.745Z,712.00
2018-12-20T10:47:05.736Z,708.00
2018-12-20T10:48:05.728Z,712.00
2018-12-20T10:49:05.714Z,712.00
2018-12-20T10:50:05.764Z,716.00
2018-12-20T10:51:05.689Z,716.00
2018-12-20T10:52:05.688Z,720.00
2018-12-20T10:53:05.669Z,724.00
2018-12-20T10:54:05.663Z,728.00
2018-12-20T10:55:05.669Z,728.00
2018-12-20T10:56:05.634Z,728.00
2018-12-20T10:57:05.682Z,732.00
2018-12-20T10:58:05.614Z,728.00
2018-12-20T10:59:05.604Z,728.00
2018-12-20T11:00:05.606Z,724.00
2018-12-20T11:01:05.587Z,720.00
2018-12-20T11:02:05.573Z,716.00
2018-12-20T11:03:05.560Z,712.00
2018-12-20T11:04:05.554Z,704.00
2018-12-20T11:05:05.552Z,696.00
2018-12-20T11:06:05.529Z,688.00
2018-12-20T11:07:05.519Z,680.00
2018-12-20T11:08:05.525Z,668.00
2018-12-20T11:09:05.493Z,660.00
2018-12-20T11:10:05.497Z,648.00
2018-12-20T11:11:05.476Z,632.00
2018-12-20T11:12:05.465Z,624.00
2018-12-20T11:13:05.455Z,612.00
2018-12-20T11:14:05.441Z,608.00
2018-12-20T11:15:05.495Z,604.00
2018-12-20T11:16:05.432Z,600.00
2018-12-20T11:17:05.410Z,604.00
2018-12-20T11:18:05.406Z,612.00
2018-12-20T11:19:05.499Z,624.00
2018-12-20T11:20:05.467Z,640.00
2018-12-20T11:21:05.374Z,652.00
2018-12-20T11:22:05.351Z,664.00
2018-12-20T11:23:05.347Z,676.00
2018-12-20T11:24:05.341Z,688.00
2018-12-20T11:25:05.328Z,696.00
2018-12-20T11:26:05.336Z,696.00
2018-12-20T11:27:05.298Z,704.00
2018-12-20T11:28:05.287Z,704.00
2018-12-20T11:29:05.282Z,708.00
2018-12-20T11:30:05.272Z,708.00
2018-12-20T11:31:05.285Z,712.00
2018-12-20T11:32:05.251Z,708.00
2018-12-20T11:33:05.241Z,700.00
2018-12-20T11:34:05.250Z,696.00
2018-12-20T11:35:05.225Z,692.00
2018-12-20T11:36:05.223Z,692.00
2018-12-20T11:37:05.197Z,692.00
2018-12-20T11:38:05.187Z,692.00
2018-12-20T11:39:08.486Z,692.00
2018-12-20T11:40:05.169Z,696.00
2018-12-20T11:41:05.172Z,700.00
2018-12-20T11:42:05.154Z,700.00
2018-12-20T11:43:05.136Z,704.00
2018-12-20T11:44:05.136Z,712.00
2018-12-20T11:45:05.119Z,712.00
2018-12-20T11:46:05.123Z,716.00
2018-12-20T11:47:05.094Z,720.00
2018-12-20T11:48:05.093Z,720.00
2018-12-20T11:49:05.105Z,724.00
2018-12-20T11:50:05.065Z,728.00
2018-12-20T11:51:05.090Z,708.00
2018-12-20T11:52:05.053Z,708.00
2018-12-20T11:53:05.042Z,724.00
2018-12-20T11:54:05.091Z,724.00
2018-12-20T11:55:05.014Z,712.00
2018-12-20T11:56:05.048Z,732.00
2018-12-20T11:57:05.036Z,744.00
2018-12-20T11:58:04.982Z,752.00
2018-12-20T11:59:05.023Z,756.00
2018-12-20T12:00:05.088Z,756.00
2018-12-20T12:01:04.989Z,760.00
2018-12-20T12:02:05.000Z,764.00
2018-12-20T12:03:05.153Z,760.00
2018-12-20T12:04:04.974Z,764.00
2018-12-20T12:05:04.952Z,768.00
2018-12-20T12:06:04.903Z,772.00
2018-12-20T12:07:04.903Z,776.00
2018-12-20T12:08:04.890Z,780.00
2018-12-20T12:09:04.873Z,788.00
2018-12-20T12:10:05.493Z,796.00
2018-12-20T12:11:04.844Z,800.00
2018-12-20T12:12:04.863Z,812.00
2018-12-20T12:13:04.832Z,820.00
2018-12-20T12:14:04.818Z,828.00
2018-12-20T12:15:04.816Z,840.00
2018-12-20T12:16:04.798Z,836.00
2018-12-20T12:17:04.797Z,844.00
2018-12-20T12:18:04.777Z,852.00
2018-12-20T12:19:04.759Z,860.00
2018-12-20T12:20:04.751Z,860.00
2018-12-20T12:21:04.831Z,848.00
2018-12-20T12:22:04.748Z,848.00
2018-12-20T12:23:04.720Z,836.00
2018-12-20T12:24:04.711Z,844.00
2018-12-20T12:25:04.700Z,844.00
2018-12-20T12:26:04.686Z,840.00
2018-12-20T12:27:04.693Z,836.00
2018-12-20T12:28:04.667Z,828.00
2018-12-20T12:29:04.666Z,828.00
2018-12-20T12:30:04.651Z,824.00
2018-12-20T12:31:04.641Z,816.00
2018-12-20T12:32:04.657Z,804.00
2018-12-20T12:33:04.621Z,796.00
2018-12-20T12:34:04.605Z,792.00
2018-12-20T12:35:04.614Z,784.00
2018-12-20T12:36:04.593Z,776.00
2018-12-20T12:37:04.600Z,772.00
2018-12-20T12:38:04.577Z,764.00
2018-12-20T12:39:04.558Z,760.00
2018-12-20T12:40:04.550Z,756.00
2018-12-20T12:41:04.532Z,756.00
2018-12-20T12:42:04.576Z,752.00
2018-12-20T12:43:04.515Z,744.00
2018-12-20T12:44:04.538Z,736.00
2018-12-20T12:45:04.499Z,732.00
2018-12-20T12:46:04.483Z,728.00
2018-12-20T12:47:04.486Z,732.00
2018-12-20T12:48:04.490Z,736.00
2018-12-20T12:49:04.457Z,728.00
2018-12-20T12:50:04.454Z,720.00
2018-12-20T12:51:04.469Z,700.00
2018-12-20T12:52:04.428Z,612.00
2018-12-20T12:53:04.457Z,652.00
2018-12-20T12:54:04.400Z,632.00
2018-12-20T12:55:04.394Z,616.00